Werte bis 5 Uhr SommerzeitDiagramme Butzbach: Tagesdaten MonatsdatenCSV-Datei: Butzbach21.csv

Wetterdaten 2021 Station: Butzbach
Temperaturen in °C relative Nieder- Global- Wind Wind Wind- Sonnen-
Datum Boden Boden Luft Luft Luft Luft Feuchte schlag strahlung max richtung schein
20 cm 5 cm 20 cm 2 m 2 m max 2 m min % mm W/m2*d m/s m/s ° h

27.10.2021 9,8 8,9 4,0 6,5 8,0 5,6 97 0,0 0 0,4 2,4 --- ---
26.10.2021 9,3 8,7 9,1 10,2 17,1 5,5 85 0,1 1888 0,9 7,7 --- 6,0
25.10.2021 9,1 7,6 3,6 4,7 12,0 -1,2 94 0,2 1515 0,4 3,7 --- 6,5
24.10.2021 9,8 8,4 2,8 4,8 13,2 -1,4 88 0,1 2285 0,6 6,2 --- 7,2
23.10.2021 10,5 9,6 6,5 7,3 11,9 1,9 89 0,4 1321 1,0 5,2 --- 6,4
22.10.2021 10,8 9,6 7,2 8,0 14,8 3,3 79 0,8 2155 2,6 11,2 --- 7,0
21.10.2021 11,3 11,1 10,9 11,7 17,1 6,0 78 7,5 1644 4,0 22,4 --- 6,4
20.10.2021 10,5 10,0 11,9 12,8 18,1 6,3 92 0,1 1179 1,4 8,0 --- 3,5
19.10.2021 10,3 9,5 8,4 9,0 12,9 4,4 99 3,5 557 0,3 2,8 --- 0,2
18.10.2021 10,5 9,4 4,8 6,0 10,6 0,8 96 0,0 852 0,4 4,8 --- 2,4
17.10.2021 10,7 9,9 7,9 8,1 13,6 5,1 84 0,0 1699 0,5 3,3 --- 7,0
16.10.2021 10,9 9,6 4,9 5,9 14,1 -0,2 89 0,0 2589 0,6 3,0 --- 7,1
15.10.2021 11,5 10,7 7,5 8,9 13,8 3,6 91 0,0 1171 1,0 5,8 --- 5,3
14.10.2021 11,4 10,8 10,5 10,7 14,0 8,8 88 0,0 650 0,7 5,7 --- 1,3
13.10.2021 11,4 10,4 8,5 8,7 13,1 6,1 86 0,4 1989 2,8 7,6 --- 8,1
12.10.2021 11,5 10,8 9,3 9,7 13,4 6,1 89 6,7 1399 2,7 8,8 --- 6,6
11.10.2021 11,5 10,2 6,4 7,0 15,1 0,4 92 0,2 1485 1,4 7,0 --- 6,1
10.10.2021 12,1 10,8 6,0 6,9 14,3 0,3 85 0,0 2703 0,7 3,0 --- 8,1
09.10.2021 12,7 11,7 9,6 10,5 16,7 4,4 80 0,0 2893 1,6 5,1 --- 7,6
08.10.2021 13,1 12,2 10,4 11,1 16,1 5,3 87 0,0 2230 1,9 6,4 --- 7,7
07.10.2021 13,4 13,0 10,7 10,9 16,9 7,2 90 0,2 2301 0,7 4,1 --- 6,7
06.10.2021 13,4 12,8 10,3 10,8 15,5 7,2 88 1,9 2088 0,6 6,4 --- 7,6
05.10.2021 13,7 13,2 11,9 12,1 16,8 9,5 92 9,3 1737 1,0 7,4 --- 6,6
04.10.2021 14,0 13,6 11,6 12,1 15,5 8,7 91 0,4 1451 0,5 4,4 --- 8,0
03.10.2021 13,7 13,6 16,2 17,1 21,6 12,4 75 2,3 785 1,3 14,0 --- 2,2
02.10.2021 13,2 12,7 13,4 14,1 20,6 7,3 78 0,1 2703 1,1 9,6 --- 7,4
01.10.2021 13,2 12,2 8,5 10,3 18,7 2,9 79 0,0 3221 1,0 6,9 --- 7,9
30.09.2021 13,8 12,7 8,1 9,9 16,7 4,5 78 0,0 2450 1,0 6,6 --- 8,8
29.09.2021 14,7 13,9 10,6 11,6 18,9 7,7 83 0,9 2086 1,4 13,4 --- 8,2
28.09.2021 15,3 14,9 11,7 12,6 17,4 7,9 85 0,0 2553 1,1 4,3 --- 8,6
27.09.2021 15,3 15,4 15,5 16,0 20,8 11,3 90 0,5 2256 1,1 11,0 --- 8,2
26.09.2021 14,9 14,9 15,9 16,7 23,7 11,2 89 2,9 2117 0,5 6,2 --- 7,8
25.09.2021 14,7 14,3 13,4 14,8 22,8 8,1 83 0,0 3428 0,8 4,4 --- 8,6
24.09.2021 14,5 14,4 15,4 16,6 23,0 11,2 77 0,0 2136 1,3 7,9 --- 8,6
23.09.2021 14,1 13,3 11,9 13,5 24,8 4,4 78 0,0 3318 1,2 7,8 --- 8,8
22.09.2021 14,3 13,4 9,7 11,6 20,6 4,1 81 0,0 3426 0,8 4,5 --- 9,1
21.09.2021 14,9 14,1 10,5 11,3 17,0 4,5 72 0,0 2845 1,6 6,5 --- 9,6
20.09.2021 15,4 14,7 12,4 12,3 15,1 10,2 72 0,0 1977 1,6 5,1 --- 7,4
19.09.2021 15,7 15,1 12,0 12,8 17,4 8,2 83 0,0 2147 1,6 6,0 --- 9,2
18.09.2021 16,1 15,6 12,9 14,4 21,7 8,0 83 0,0 3675 1,0 5,3 --- 10,3
17.09.2021 16,5 16,0 13,4 14,5 21,0 8,4 86 0,0 2296 1,0 4,6 --- 7,8
16.09.2021 17,1 17,0 16,0 16,5 19,5 14,2 79 0,0 2399 2,2 8,8 --- 9,5
15.09.2021 17,1 17,3 17,8 18,6 22,2 15,4 93 2,1 1474 0,8 6,3 --- 6,7
14.09.2021 16,8 16,7 16,8 18,0 26,1 10,6 80 0,0 3723 0,7 3,5 --- 9,7
13.09.2021 17,0 16,7 13,8 15,6 23,1 8,2 79 0,0 4122 1,0 10,0 --- 10,2
12.09.2021 17,4 17,5 16,3 17,0 24,1 12,2 81 0,0 4017 1,1 6,5 --- 10,7
11.09.2021 17,5 17,7 17,8 18,3 23,4 14,4 88 0,1 2194 0,8 5,4 --- 8,7
10.09.2021 17,5 17,9 18,5 19,3 24,9 15,7 87 7,5 2168 0,7 5,8 --- 8,8
09.09.2021 17,0 17,2 18,1 19,4 28,7 11,1 77 0,0 4287 0,8 5,5 --- 9,8
08.09.2021 17,0 17,0 16,6 18,3 26,6 9,8 73 0,0 4900 1,2 7,2 --- 11,0
07.09.2021 17,0 17,1 17,3 19,1 25,3 12,5 66 0,0 4172 1,4 5,4 --- 10,5
06.09.2021 16,9 16,9 17,3 18,9 28,0 10,0 68 0,0 4738 1,2 4,9 --- 11,0
05.09.2021 16,8 16,9 17,2 18,0 26,3 12,5 72 0,0 4870 1,8 5,3 --- 11,1
04.09.2021 16,5 16,6 17,2 18,7 26,3 12,0 72 0,0 4469 1,6 5,1 --- 9,6
03.09.2021 16,3 16,3 15,6 17,1 25,6 8,9 75 0,0 5353 1,0 4,7 --- 11,2
02.09.2021 16,1 15,9 15,5 16,3 23,4 10,7 77 0,0 4983 1,6 5,3 --- 11,3
01.09.2021 16,3 16,0 14,1 15,5 21,2 9,0 77 0,0 3225 1,6 5,5 --- 10,3
31.08.2021 16,4 16,2 15,7 16,6 23,1 12,9 74 0,0 4050 2,3 6,3 --- 10,8
30.08.2021 16,3 16,1 16,4 16,8 19,8 14,9 80 0,0 1891 3,1 8,9 --- 8,4
29.08.2021 16,5 16,1 14,8 15,0 17,3 13,6 91 5,6 1432 3,4 8,5 --- 6,5
28.08.2021 16,6 16,3 15,2 15,1 20,0 11,7 80 1,5 3836 2,3 7,1 --- 9,3
27.08.2021 16,9 16,4 14,6 14,8 21,6 11,5 82 0,0 3393 3,7 10,1 --- 10,2
26.08.2021 17,3 17,2 16,6 16,9 24,5 13,2 71 0,2 4706 3,5 10,0 --- 9,6
25.08.2021 17,2 16,9 16,2 16,7 23,5 10,1 65 0,0 5851 1,8 5,8 --- 11,7
24.08.2021 17,6 17,3 14,5 15,5 20,7 11,6 73 0,0 4195 2,4 7,5 --- 12,3
23.08.2021 17,9 17,9 16,5 16,8 21,8 12,5 85 0,0 3453 1,7 7,8 --- 11,3
22.08.2021 18,3 18,4 17,0 17,3 21,8 13,3 90 11,7 2575 0,9 8,7 --- 10,9
21.08.2021 17,8 18,1 18,5 19,2 26,8 11,2 75 0,0 5406 0,9 6,0 --- 12,1
20.08.2021 17,7 17,8 16,8 17,3 23,2 11,7 80 0,0 4160 1,4 6,2 --- 10,9
19.08.2021 17,6 17,5 17,4 17,8 22,1 15,0 82 0,8 2125 1,4 7,9 --- 9,7
18.08.2021 17,5 17,3 16,3 16,4 20,8 12,7 84 0,2 2420 1,3 7,4 --- 9,1
17.08.2021 18,0 17,3 13,7 13,9 19,9 10,3 81 0,5 3261 1,8 9,8 --- 9,9
16.08.2021 19,1 19,0 16,8 17,4 23,7 11,3 75 2,5 3109 2,8 11,2 --- 11,5
15.08.2021 19,2 19,6 19,0 20,1 28,3 10,8 69 0,0 5583 0,9 5,1 --- 12,2
14.08.2021 19,0 19,6 20,4 21,4 30,5 12,5 69 0,0 6490 1,4 8,2 --- 13,0
13.08.2021 18,6 19,2 20,7 21,4 30,3 13,2 76 0,0 5093 1,2 6,9 --- 12,2
12.08.2021 18,1 18,5 19,2 19,8 28,4 12,8 78 0,0 4445 0,7 3,2 --- 12,8
11.08.2021 17,7 17,9 17,8 18,2 26,0 10,3 79 0,0 4727 0,8 4,1 --- 12,7
10.08.2021 17,4 17,3 16,4 16,8 25,1 9,5 80 0,4 3750 1,0 7,4 --- 9,8
09.08.2021 17,6 17,2 14,6 15,5 23,4 8,2 80 0,0 3580 0,8 7,1 --- 12,1
08.08.2021 18,0 17,9 15,1 15,6 21,4 10,0 83 1,0 4085 1,0 9,9 --- 11,4
07.08.2021 18,4 18,2 16,6 16,7 22,8 10,9 85 6,6 3056 1,1 8,5 --- 11,3
06.08.2021 18,6 18,8 17,2 17,5 24,3 12,7 84 7,0 3765 0,9 8,5 --- 10,0
05.08.2021 18,2 18,5 17,6 17,2 24,5 11,8 85 5,5 5097 0,6 4,6 --- 11,0
04.08.2021 18,0 18,0 16,7 16,4 22,5 12,5 85 3,8 3282 0,5 3,7 --- 9,8
03.08.2021 18,2 18,0 15,1 15,0 20,6 10,7 91 3,0 2732 0,7 6,8 --- 9,8
02.08.2021 18,6 18,6 16,5 16,4 22,9 11,9 83 7,0 3758 1,1 5,5 --- 10,3
01.08.2021 18,7 18,9 18,3 17,9 24,7 13,3 73 2,2 5698 1,9 10,4 --- 11,3
31.07.2021 18,9 19,0 18,3 18,5 24,9 12,6 64 0,0 5801 1,7 11,5 --- 12,2
30.07.2021 18,6 18,9 19,6 19,3 27,4 9,9 67 0,0 6481 1,0 7,4 --- 12,4
29.07.2021 18,6 18,8 18,3 18,6 25,7 13,1 67 0,0 6027 1,4 11,7 --- 12,1
28.07.2021 18,7 18,7 17,7 18,2 23,7 11,5 82 9,5 4814 1,1 9,4 --- 13,1
27.07.2021 19,0 19,3 18,9 19,1 26,0 13,3 78 13,7 4459 1,0 7,0 --- 11,8
26.07.2021 19,0 19,5 19,7 20,0 27,8 13,3 77 1,2 4911 0,9 6,7 --- 12,7
25.07.2021 18,8 19,3 19,7 19,4 27,2 13,2 81 0,0 5208 1,1 6,8 --- 11,0
24.07.2021 18,9 19,2 18,9 19,5 25,6 14,5 79 6,2 3589 1,0 5,2 --- 12,4
23.07.2021 18,8 19,2 18,7 19,6 28,1 11,1 69 0,0 6709 1,1 4,7 --- 13,0
22.07.2021 18,8 19,0 17,9 18,4 25,8 11,3 71 0,0 5646 1,2 7,1 --- 13,0
21.07.2021 18,9 19,0 16,8 17,6 24,2 9,1 66 0,0 7020 1,3 6,4 --- 13,3
20.07.2021 19,2 19,5 16,9 17,5 23,7 10,7 68 0,0 7006 1,4 6,1 --- 13,0
19.07.2021 19,5 20,2 18,6 19,2 24,2 13,3 72 0,0 6231 2,0 7,1 --- 11,4
18.07.2021 19,2 20,0 20,0 21,3 28,8 12,6 67 0,0 7473 1,8 7,0 --- 13,4
17.07.2021 18,8 19,6 20,8 21,5 28,2 17,1 73 0,0 6107 2,3 7,9 --- 12,9
16.07.2021 18,5 18,8 18,5 18,7 24,1 14,0 86 0,5 3936 1,7 8,0 --- 11,1
15.07.2021 18,3 18,7 18,2 18,1 25,1 14,1 83 4,0 4785 0,9 6,3 --- 11,8
14.07.2021 18,5 18,5 16,6 16,5 17,7 15,4 92 1,1 1399 1,1 6,2 --- 6,6
13.07.2021 18,8 19,2 18,5 18,5 22,1 16,5 93 8,7 2241 1,1 5,6 --- 10,3
12.07.2021 18,4 18,9 18,6 18,9 25,7 11,5 80 0,0 5381 1,1 5,6 --- 13,8
11.07.2021 18,5 18,8 17,5 17,4 23,3 14,4 89 24,4 3920 1,1 6,7 --- 12,4
10.07.2021 18,1 18,5 18,0 18,2 25,9 11,3 80 0,3 5675 0,9 5,3 --- 13,1
09.07.2021 18,2 18,2 17,1 17,3 20,7 14,4 87 4,5 2797 1,9 7,6 --- 11,4
08.07.2021 18,6 18,9 17,1 17,3 24,7 12,8 86 16,3 3630 1,4 11,6 --- 8,6
07.07.2021 18,1 18,7 18,5 18,5 26,0 13,1 77 0,0 6577 1,0 7,5 --- 12,3
06.07.2021 18,2 18,2 16,3 17,3 21,1 13,2 90 10,0 1923 0,7 5,6 --- 11,1
05.07.2021 18,4 18,4 16,7 16,9 21,7 10,9 90 4,8 2990 0,9 6,8 --- 9,9
04.07.2021 19,0 19,5 18,2 18,0 25,6 13,8 90 39,6 3714 0,9 7,8 --- 10,1
03.07.2021 18,4 19,0 19,0 18,8 27,8 9,7 72 0,0 7010 0,8 6,5 --- 13,3
02.07.2021 17,9 18,2 17,3 16,9 23,9 12,4 74 0,5 6189 1,2 7,0 --- 13,7
01.07.2021 18,7 18,3 14,2 14,2 16,0 12,7 87 0,3 1531 1,6 7,2 --- 7,4
30.06.2021 19,2 19,4 17,5 17,0 23,3 12,5 84 4,8 5226 1,0 6,4 --- 12,2
29.06.2021 20,1 20,7 18,4 18,4 24,3 14,1 91 18,2 2848 1,3 10,9 --- 8,2
28.06.2021 19,8 21,1 22,8 22,6 30,1 15,6 72 0,1 6234 0,9 4,9 --- 13,5
27.06.2021 19,2 20,2 21,0 20,6 27,6 13,1 73 0,0 6364 1,0 5,9 --- 11,4
26.06.2021 18,7 19,4 18,2 17,7 26,0 9,9 76 0,0 7006 0,9 4,3 --- 13,8
25.06.2021 18,5 19,0 18,1 17,8 22,9 12,8 80 0,1 5412 1,4 6,2 --- 13,4
24.06.2021 18,8 18,8 16,8 16,6 19,0 15,0 90 10,3 1862 1,3 5,7 --- 7,9
23.06.2021 19,1 19,3 18,3 17,7 22,6 13,4 82 0,3 4554 1,9 5,7 --- 12,8
22.06.2021 20,2 20,0 15,7 15,4 18,7 13,7 84 3,6 2997 2,3 7,9 --- 11,1
21.06.2021 21,3 22,3 21,2 20,5 26,5 15,1 76 4,8 6586 1,9 8,3 --- 14,8
20.06.2021 21,7 23,2 24,8 24,3 28,9 20,5 67 0,0 6471 1,2 8,7 --- 13,0
19.06.2021 21,4 23,3 26,4 25,6 32,6 19,1 65 0,2 7376 1,0 4,7 --- 13,6
18.06.2021 20,9 22,8 25,9 25,4 33,9 16,5 66 0,0 6840 0,9 5,7 --- 13,7
17.06.2021 20,1 21,9 25,4 24,7 33,8 14,6 64 0,0 7489 0,9 5,8 --- 13,7
16.06.2021 19,4 21,0 23,8 22,7 30,8 15,3 67 0,0 7046 1,2 5,0 --- 13,5
15.06.2021 18,8 20,1 21,0 20,5 28,8 11,0 68 0,0 6606 1,2 5,5 --- 13,3
14.06.2021 18,3 19,4 19,4 18,0 27,1 8,4 66 0,0 8170 1,0 4,4 --- 14,6
13.06.2021 18,1 18,9 17,5 16,6 24,4 8,8 64 0,0 8307 1,3 7,6 --- 14,7
12.06.2021 18,7 19,5 19,6 19,7 25,9 13,5 69 0,0 5900 2,3 10,0 --- 13,7
11.06.2021 18,5 20,1 21,7 20,9 28,1 12,9 69 0,0 7369 1,2 6,1 --- 14,2
10.06.2021 17,7 19,5 21,1 20,3 28,1 12,8 73 0,2 7357 1,1 8,6 --- 13,8
09.06.2021 16,6 18,0 20,8 20,5 27,1 14,4 73 3,1 6785 1,2 6,3 --- 12,9
08.06.2021 15,8 16,6 18,6 19,1 22,9 15,4 78 0,0 5108 1,7 5,2 --- 13,9
07.06.2021 15,7 16,0 16,4 16,8 20,3 14,6 87 1,0 2709 2,1 5,7 --- 7,7
06.06.2021 16,1 16,6 16,3 16,8 19,3 15,1 87 1,8 2362 2,3 7,2 --- 8,6
05.06.2021 16,1 17,0 18,8 18,9 24,0 13,4 85 4,3 5266 1,4 6,9 --- 12,3
04.06.2021 15,5 16,9 19,3 19,2 26,8 14,3 88 15,7 4405 0,8 10,2 --- 9,9
03.06.2021 14,7 15,5 17,8 18,4 27,0 10,3 74 10,2 4917 1,0 6,5 --- 11,3
02.06.2021 14,2 15,0 17,2 18,0 27,0 8,1 61 0,0 7905 1,1 6,8 --- 13,6
01.06.2021 13,8 14,4 15,4 16,0 24,7 6,8 61 0,0 7955 1,3 6,3 --- 14,3
31.05.2021 13,4 14,1 14,5 15,0 22,9 6,0 63 0,0 8067 1,4 9,3 --- 14,1
30.05.2021 12,9 13,5 13,5 14,1 20,9 6,4 67 0,0 7464 2,0 6,8 --- 13,9
29.05.2021 12,3 12,9 12,6 13,2 19,7 5,8 68 0,0 6715 1,6 7,8 --- 13,7
28.05.2021 11,8 12,0 12,3 12,6 18,5 6,9 72 0,0 5394 1,4 6,4 --- 13,0
27.05.2021 11,6 11,4 10,3 10,7 14,4 6,6 84 2,2 3502 2,6 9,1 --- 12,2
26.05.2021 11,6 11,4 10,4 9,8 15,2 6,4 90 10,2 3541 0,9 11,0 --- 12,2
25.05.2021 11,9 11,7 9,6 9,2 16,8 6,2 85 4,0 3812 1,4 11,3 --- 12,0
24.05.2021 12,0 11,9 11,1 11,5 21,2 3,5 75 0,6 5360 1,4 9,9 --- 12,6
23.05.2021 12,1 12,1 11,2 12,0 17,9 5,6 67 0,1 5195 1,6 10,9 --- 12,3
22.05.2021 12,2 12,3 11,9 11,4 19,1 6,5 75 1,8 6171 2,1 13,3 --- 13,1
21.05.2021 12,2 12,4 13,1 13,8 20,0 9,4 62 0,0 5128 1,8 11,8 --- 13,1
20.05.2021 12,0 12,3 12,7 12,5 18,0 9,0 72 0,1 4442 1,3 10,6 --- 12,3
19.05.2021 11,8 11,9 11,0 10,6 17,8 3,8 76 0,0 5426 1,6 8,4 --- 11,2
18.05.2021 11,8 12,0 10,5 10,5 17,0 6,0 84 1,9 5246 1,8 10,5 --- 12,2
17.05.2021 11,7 11,8 11,2 10,6 16,2 6,0 89 10,7 4174 1,0 9,8 --- 11,8
16.05.2021 11,7 11,8 10,7 10,5 18,3 4,4 86 9,3 4380 1,4 12,4 --- 11,5
15.05.2021 12,0 12,0 11,2 11,2 16,3 6,4 81 0,8 3566 1,4 8,4 --- 11,8
14.05.2021 12,1 12,5 12,2 12,7 18,7 8,0 73 0,7 4400 1,3 8,6 --- 12,0
13.05.2021 12,0 12,4 12,2 12,4 19,7 6,3 79 1,6 4067 0,9 6,5 --- 10,8
12.05.2021 12,0 12,5 12,9 13,0 16,3 10,2 80 0,0 2793 2,0 7,7 --- 9,5
11.05.2021 11,9 12,6 13,6 13,8 17,1 11,4 90 3,7 2486 1,2 5,8 --- 9,9
10.05.2021 11,7 12,7 14,4 15,8 22,2 12,2 77 4,8 1870 1,1 9,2 --- 7,6
09.05.2021 10,3 11,4 15,6 17,3 28,1 5,5 61 0,0 6524 1,6 11,9 --- 12,4
08.05.2021 9,2 9,0 7,9 8,9 16,8 -1,1 67 0,0 5181 1,4 7,8 --- 13,0
07.05.2021 9,3 9,1 6,3 6,5 12,7 1,9 77 1,8 4707 2,3 10,3 --- 12,4
06.05.2021 9,2 8,9 7,1 7,2 12,6 2,9 77 5,0 3328 1,6 8,2 --- 10,1
05.05.2021 9,3 8,8 5,7 7,0 14,7 1,6 75 2,8 5363 2,6 14,6 --- 12,3
04.05.2021 9,6 9,2 7,8 9,3 13,5 4,8 70 0,4 2036 2,7 14,5 --- 9,3
03.05.2021 9,7 9,3 6,6 7,7 14,5 -1,3 62 0,0 4817 1,5 7,8 --- 12,1
02.05.2021 10,2 9,9 7,7 8,1 13,3 1,8 61 0,0 3828 2,7 9,3 --- 12,6
01.05.2021 10,3 10,2 9,2 9,3 14,1 2,4 68 0,0 3818 1,5 6,5 --- 12,5
30.04.2021 10,5 10,1 6,7 7,0 11,6 1,0 79 0,0 2802 0,9 7,1 --- 8,9
29.04.2021 11,1 11,7 10,5 11,1 19,2 3,2 75 4,6 4834 2,4 14,7 --- 11,4
28.04.2021 10,4 10,9 11,1 11,5 21,4 0,8 58 10,2 6208 1,6 11,5 --- 11,7
27.04.2021 9,9 10,1 8,6 8,8 16,5 -0,7 49 0,0 6911 1,6 5,7 --- 13,0
26.04.2021 9,9 10,0 7,2 7,6 13,8 -0,2 50 0,0 7063 2,0 7,0 --- 13,0
25.04.2021 9,9 10,0 7,5 7,4 12,4 2,7 59 0,0 6880 3,1 8,8 --- 12,9
24.04.2021 9,8 10,0 9,1 9,2 14,9 3,7 60 0,0 6397 2,9 8,5 --- 12,4
23.04.2021 9,6 9,7 7,3 7,9 15,0 0,4 64 0,0 6752 1,8 6,6 --- 13,0
22.04.2021 9,5 9,8 7,9 7,8 14,3 2,4 60 0,0 6487 2,4 7,3 --- 12,3
21.04.2021 9,5 9,9 9,3 10,3 16,7 2,5 75 0,0 4137 1,9 10,0 --- 12,1
20.04.2021 8,7 9,4 9,5 9,9 18,1 1,0 73 0,0 6272 1,2 5,2 --- 12,2
19.04.2021 8,1 8,6 8,6 8,7 13,8 4,3 84 1,5 3733 1,7 7,4 --- 10,8
18.04.2021 7,3 7,4 8,3 8,3 12,6 5,4 80 11,6 2561 1,3 4,8 --- 7,8
17.04.2021 7,0 6,7 6,2 6,5 9,7 2,7 63 0,0 2616 2,3 7,5 --- 9,9
16.04.2021 6,8 6,4 5,1 5,1 8,4 0,8 68 0,0 3103 1,9 8,8 --- 10,0
15.04.2021 6,8 6,2 3,6 3,9 9,3 0,3 72 0,1 3916 2,6 9,1 --- 11,7
14.04.2021 6,8 6,2 2,6 3,1 8,6 -3,1 72 0,3 4624 1,8 7,9 --- 11,6
13.04.2021 7,1 6,4 2,8 3,3 10,2 -2,5 73 0,1 4486 1,8 7,5 --- 11,6
12.04.2021 7,4 7,0 4,2 4,2 11,2 -0,5 75 0,0 4502 2,7 12,1 --- 11,5
11.04.2021 7,6 7,7 7,3 7,6 15,6 3,0 91 9,2 1602 1,7 8,5 --- 4,1
10.04.2021 7,2 7,3 7,9 8,0 11,4 6,2 93 11,4 894 1,0 5,4 --- 1,2
09.04.2021 6,1 5,9 6,5 7,3 15,9 -2,1 59 0,0 4527 1,4 8,2 --- 10,6
08.04.2021 5,8 5,0 2,8 3,1 8,5 -0,4 69 0,0 3182 2,2 7,1 --- 11,6
07.04.2021 6,1 4,9 1,4 1,6 9,5 -1,1 82 0,7 3083 3,9 13,6 --- 10,8
06.04.2021 6,5 5,3 1,9 2,4 10,6 -0,7 76 0,0 4643 4,7 14,0 --- 10,6
05.04.2021 7,7 6,5 1,7 2,4 6,7 -1,0 82 2,3 1852 2,6 15,7 --- 6,4
04.04.2021 8,4 7,8 4,5 5,5 10,8 -0,1 69 0,0 3980 1,5 7,6 --- 10,3
03.04.2021 8,9 8,7 6,7 6,8 11,9 2,4 59 0,0 5249 2,8 8,8 --- 11,2
02.04.2021 9,6 9,6 8,1 8,0 13,6 5,5 64 0,0 3715 3,0 9,3 --- 8,4
01.04.2021 9,4 10,2 13,0 14,6 26,4 6,1 59 0,0 4580 2,1 8,3 --- 11,0
31.03.2021 8,8 9,6 11,6 13,8 24,6 3,2 54 0,0 5060 1,1 6,7 --- 11,0
30.03.2021 8,2 8,9 10,5 12,3 22,5 2,5 56 0,0 5190 1,0 5,2 --- 11,0
29.03.2021 7,4 8,0 10,9 12,5 21,9 3,2 55 0,0 5023 1,4 8,1 --- 10,9
28.03.2021 6,7 6,5 7,6 8,3 15,4 1,1 68 0,0 3375 1,5 8,4 --- 9,2
27.03.2021 7,3 7,1 6,0 6,7 12,4 1,9 75 3,0 3288 3,3 16,3 --- 10,9
26.03.2021 7,0 7,6 10,0 10,5 16,5 5,4 72 0,0 3599 1,4 8,7 --- 10,6
25.03.2021 6,1 6,3 7,1 8,0 16,0 -0,3 75 0,0 3665 1,1 6,0 --- 9,9
24.03.2021 5,5 5,4 5,3 6,0 15,3 -2,3 77 0,1 4609 1,2 7,2 --- 11,0
23.03.2021 5,4 5,3 5,3 5,8 9,7 0,4 75 0,0 1982 1,5 8,6 --- 9,0
22.03.2021 5,1 4,8 5,2 5,2 7,4 3,1 75 0,0 1465 2,5 8,1 --- 7,8
21.03.2021 5,0 4,8 5,6 5,8 11,2 3,2 67 0,0 3075 3,3 11,8 --- 9,7
20.03.2021 4,4 3,9 2,6 2,2 5,8 -1,3 60 0,0 3984 1,7 7,6 --- 10,0
19.03.2021 4,7 4,0 1,8 2,0 6,4 0,2 83 2,3 2425 3,0 10,5 --- 9,0
18.03.2021 4,7 3,9 2,2 2,4 10,2 -2,5 78 2,2 3060 1,5 8,2 --- 8,9
17.03.2021 5,2 4,6 3,0 3,3 5,5 -1,1 79 0,4 1580 2,4 8,1 --- 7,2
16.03.2021 5,3 4,8 5,0 5,2 10,7 3,1 76 0,3 2452 3,5 10,7 --- 8,6
15.03.2021 5,2 4,8 4,7 5,0 12,5 0,9 83 2,5 2781 3,1 11,3 --- 8,7
14.03.2021 5,2 4,7 4,2 4,6 8,7 2,2 80 1,3 1988 2,9 12,2 --- 8,1
13.03.2021 5,4 5,2 6,0 6,6 10,0 4,6 78 2,5 1629 4,1 15,6 --- 6,8
12.03.2021 5,3 5,1 6,7 7,0 13,4 3,9 69 0,2 2358 4,5 13,9 --- 7,4
11.03.2021 5,0 5,1 7,7 8,3 13,1 5,2 78 5,2 1063 4,1 18,3 --- 5,5
10.03.2021 4,3 4,2 5,9 6,1 9,1 3,0 78 0,0 1550 1,8 7,2 --- 6,9
09.03.2021 3,9 3,3 2,6 2,8 5,8 -0,7 88 0,4 1172 1,0 6,2 --- 5,3
08.03.2021 3,8 2,8 0,7 1,0 5,6 -3,5 84 0,0 1585 0,7 5,0 --- 6,3
07.03.2021 4,1 3,2 0,7 1,3 7,7 -5,4 69 0,0 3659 1,1 8,4 --- 9,7
06.03.2021 4,6 3,6 0,5 1,0 6,7 -4,5 67 0,0 3483 1,2 4,9 --- 9,5
05.03.2021 5,6 5,2 2,7 3,0 5,5 0,4 75 0,9 1816 2,7 9,8 --- 8,2
04.03.2021 5,4 5,4 6,2 6,5 12,4 2,4 88 4,0 1823 1,5 7,7 --- 7,8
03.03.2021 5,0 4,7 4,0 5,1 13,2 -0,4 87 0,1 2620 0,5 3,1 --- 8,0
02.03.2021 4,9 4,7 4,3 5,1 13,7 -1,7 82 0,2 3189 1,0 4,2 --- 9,1
01.03.2021 5,0 4,7 4,4 4,8 10,0 -0,1 87 0,1 2836 2,3 6,2 --- 8,1
28.02.2021 4,9 4,9 5,6 5,9 11,0 1,4 73 0,0 3069 1,9 5,5 --- 9,0
27.02.2021 4,8 4,3 3,7 4,1 7,4 -0,8 83 0,1 2628 2,3 8,2 --- 8,9
26.02.2021 5,5 5,1 4,2 5,4 9,0 2,8 89 3,4 762 1,6 9,1 --- 4,1
25.02.2021 5,4 5,8 7,8 9,4 17,1 3,0 81 0,0 2617 0,9 5,0 --- 8,4
24.02.2021 4,9 5,4 8,5 10,0 17,1 3,7 85 0,0 2427 1,0 6,1 --- 7,6
23.02.2021 3,9 4,3 7,6 8,3 17,6 1,9 86 0,0 2376 1,1 5,2 --- 8,0
22.02.2021 3,4 3,3 3,7 5,0 10,0 0,1 89 0,1 2167 0,9 5,5 --- 8,0
21.02.2021 2,9 3,2 6,0 7,5 15,9 0,7 81 0,0 2537 1,1 5,7 --- 8,3
20.02.2021 1,9 2,1 5,5 6,7 15,2 0,8 87 0,0 2179 0,9 5,0 --- 7,4
19.02.2021 0,9 0,7 4,7 5,6 10,7 1,5 85 0,8 2188 1,6 14,7 --- 7,6
18.02.2021 0,5 -0,6 3,8 4,9 10,2 -0,1 88 0,2 1551 1,0 8,5 --- 6,2
17.02.2021 0,5 -0,7 6,0 7,1 14,2 1,8 84 3,3 1683 1,8 8,9 --- 6,9
16.02.2021 0,5 -0,7 2,2 2,6 8,1 -0,3 94 2,3 1596 0,7 4,3 --- 6,9
15.02.2021 0,5 -0,9 -2,4 -2,1 0,2 -5,7 77 0,1 782 1,2 6,0 --- 3,5
14.02.2021 0,6 -0,9 -6,0 -5,5 1,3 -12,4 75 0,2 2524 0,7 3,7 --- 7,8
13.02.2021 0,9 -0,6 -6,7 -6,4 -1,1 -11,7 75 0,4 2300 2,1 6,1 --- 7,4
12.02.2021 1,1 -0,3 -6,4 -6,3 -2,6 -9,3 78 0,0 1925 2,7 8,3 --- 6,3
11.02.2021 1,3 -0,2 -4,4 -4,4 -2,0 -6,3 81 0,0 1589 1,8 5,8 --- 6,2
10.02.2021 1,7 0,1 -8,7 -8,8 -4,6 -12,5 82 0,0 1929 3,5 9,4 --- 6,7
09.02.2021 2,2 0,6 -8,8 -9,1 -7,3 -11,0 81 0,0 1338 2,3 6,0 --- 6,6
08.02.2021 3,0 1,3 -6,3 -6,6 -5,3 -8,3 87 0,0 817 3,1 7,1 --- 3,0
07.02.2021 4,1 2,7 -1,6 -1,7 0,8 -5,5 96 3,0 205 3,3 6,9 --- ---
06.02.2021 4,9 4,4 3,1 3,3 5,5 0,5 98 13,2 161 2,4 6,8 --- ---
05.02.2021 4,9 4,2 3,7 4,0 5,8 1,6 99 8,5 282 0,2 2,5 --- ---
04.02.2021 5,2 5,4 6,0 6,7 11,5 1,7 81 1,7 1757 2,1 13,9 --- 4,9
03.02.2021 4,3 4,4 7,7 8,5 12,2 5,4 94 11,6 384 1,4 13,3 --- 0,5
02.02.2021 3,5 3,2 5,0 5,4 9,3 2,8 98 6,3 474 0,7 6,1 --- 0,1
01.02.2021 3,1 2,2 1,4 1,3 2,9 -0,1 100 6,6 382 0,1 1,2 --- 0,2
31.01.2021 3,5 2,3 -0,9 -0,7 0,7 -2,5 88 1,4 805 1,8 6,3 --- 4,4
30.01.2021 4,2 3,8 2,1 2,4 7,6 -0,3 94 10,8 424 2,4 10,6 --- 0,4
29.01.2021 3,6 3,7 6,2 6,8 14,0 3,2 90 27,0 825 2,5 12,9 --- 3,1
28.01.2021 2,7 2,1 2,9 3,0 5,7 0,7 99 24,3 319 0,7 6,2 --- ---
27.01.2021 2,6 1,5 0,1 0,5 2,8 -1,2 96 0,4 578 1,0 7,1 --- 3,0
26.01.2021 2,9 1,8 1,0 1,7 6,3 -1,1 89 0,7 1089 3,1 12,1 --- 4,7
25.01.2021 3,1 2,0 -1,2 -0,6 0,9 -3,0 95 0,8 812 0,7 3,9 --- 4,6
24.01.2021 3,7 2,7 0,4 0,9 4,4 -1,3 95 5,6 880 3,1 12,2 --- 3,8
23.01.2021 4,0 3,3 2,1 2,4 4,9 -0,7 96 0,4 644 1,0 5,2 --- 2,0
22.01.2021 4,2 4,2 4,6 5,0 9,4 1,3 93 4,8 471 2,0 12,4 --- 1,4
21.01.2021 3,3 3,1 6,4 7,1 9,3 3,8 77 1,8 625 3,0 11,8 --- 3,1
20.01.2021 2,8 2,1 2,4 3,6 7,4 -0,7 84 0,0 745 1,2 7,8 --- 3,5
19.01.2021 2,6 2,0 2,6 3,1 5,0 0,8 90 4,4 368 1,7 8,6 --- ---
18.01.2021 2,1 1,4 2,6 3,1 5,3 -0,2 89 0,5 828 2,1 7,3 --- 3,8
17.01.2021 1,9 0,7 -1,4 -1,6 -0,1 -2,9 97 1,4 414 0,3 2,2 --- 0,3
16.01.2021 2,0 0,8 -1,3 -1,2 -0,1 -2,5 76 0,0 442 1,4 5,8 --- ---
15.01.2021 2,2 0,9 -0,5 -0,1 1,0 -1,7 83 0,0 428 2,2 5,8 --- ---
14.01.2021 2,5 1,4 0,3 0,8 2,8 -1,0 80 0,0 643 2,0 7,9 --- 3,2
13.01.2021 2,4 1,3 1,3 1,9 5,1 0,3 84 0,1 726 2,6 9,1 --- 3,8
12.01.2021 2,2 1,0 1,9 2,3 6,3 -0,5 91 5,5 630 2,9 10,7 --- 2,8
11.01.2021 2,4 0,8 -2,6 -2,2 2,8 -5,8 91 0,0 1035 1,0 6,0 --- 4,8
10.01.2021 2,8 1,6 -1,4 -1,0 2,9 -4,4 92 0,0 990 0,5 2,6 --- 5,0
09.01.2021 3,0 1,8 -0,1 0,3 1,6 -1,3 87 0,0 516 1,5 6,4 --- 1,5
08.01.2021 3,2 2,1 0,9 1,2 2,1 0,4 91 1,4 585 2,7 7,2 --- 2,1
07.01.2021 3,3 2,2 0,8 1,0 2,6 0,3 90 0,1 462 1,4 6,7 --- 2,1
06.01.2021 3,3 2,3 1,5 1,7 3,0 0,5 94 2,8 393 2,2 5,8 --- 0,7
05.01.2021 3,3 2,2 1,0 1,2 1,8 0,5 95 2,8 198 2,7 6,5 --- ---
04.01.2021 3,4 2,2 0,6 0,8 1,3 0,1 96 1,4 110 1,8 4,5 --- ---
03.01.2021 3,6 2,3 0,9 1,3 2,4 0,5 89 1,4 200 2,7 7,4 --- ---
02.01.2021 3,7 2,6 0,7 1,0 2,7 -1,0 94 0,0 470 0,9 4,8 --- ---
01.01.2021 3,8 2,7 1,0 1,1 2,3 0,1 98 4,0 299 0,2 2,8 --- ---

Mittelwerte (Temperaturen, Strahlung, rel. Feuchte, Wind), Summe (Regen) für 2021
11,4 11,2 10,4 10,9 79 638 3.388 1,6

Landesbetrieb Landwirtschaft Hessen 2009

      Werte bis 5 Uhr SommerzeitCSV-Datei: Butzbach21.csvDiagramm: Butzbach